sensor_id;sensor_type;location;lat;lon;timestamp;pressure;altitude;pressure_sealevel;temperature;humidity
78488;BME280;67885;49.758;9.582;2024-03-06T00:00:12;99259.66;;;12.88;54.42
78488;BME280;67885;49.758;9.582;2024-03-06T00:02:39;99252.53;;;12.89;54.33
78488;BME280;67885;49.758;9.582;2024-03-06T00:05:06;99256.72;;;12.91;54.17
78488;BME280;67885;49.758;9.582;2024-03-06T00:07:34;99261.06;;;12.92;53.95
78488;BME280;67885;49.758;9.582;2024-03-06T00:10:00;99259.25;;;12.93;54.46
78488;BME280;67885;49.758;9.582;2024-03-06T00:12:27;99249.97;;;12.87;54.17
78488;BME280;67885;49.758;9.582;2024-03-06T00:14:55;99259.38;;;12.91;54.29
78488;BME280;67885;49.758;9.582;2024-03-06T00:17:21;99268.47;;;12.89;53.79
78488;BME280;67885;49.758;9.582;2024-03-06T00:19:48;99259.22;;;12.83;53.75
78488;BME280;67885;49.758;9.582;2024-03-06T00:22:14;99270.28;;;12.88;54.22
78488;BME280;67885;49.758;9.582;2024-03-06T00:24:42;99279.94;;;12.89;53.99
78488;BME280;67885;49.758;9.582;2024-03-06T00:27:08;99270.97;;;12.80;54.20
78488;BME280;67885;49.758;9.582;2024-03-06T00:29:35;99277.28;;;12.89;54.13
78488;BME280;67885;49.758;9.582;2024-03-06T00:32:05;99287.19;;;12.87;53.63
78488;BME280;67885;49.758;9.582;2024-03-06T00:34:31;99290.41;;;12.81;54.24
78488;BME280;67885;49.758;9.582;2024-03-06T00:36:58;99297.66;;;12.79;54.72
78488;BME280;67885;49.758;9.582;2024-03-06T00:39:24;99302.16;;;12.78;53.80
78488;BME280;67885;49.758;9.582;2024-03-06T00:41:51;99308.44;;;12.77;54.45
78488;BME280;67885;49.758;9.582;2024-03-06T00:44:18;99303.84;;;12.79;54.22
78488;BME280;67885;49.758;9.582;2024-03-06T00:46:45;99297.25;;;12.74;54.40
78488;BME280;67885;49.758;9.582;2024-03-06T00:49:13;99312.63;;;12.80;54.60
78488;BME280;67885;49.758;9.582;2024-03-06T00:51:39;99308.19;;;12.80;53.68
78488;BME280;67885;49.758;9.582;2024-03-06T00:54:06;99305.38;;;12.82;54.43
78488;BME280;67885;49.758;9.582;2024-03-06T00:56:37;99312.91;;;12.77;54.84
78488;BME280;67885;49.758;9.582;2024-03-06T00:59:03;99313.44;;;12.71;54.71
78488;BME280;67885;49.758;9.582;2024-03-06T01:01:30;99305.16;;;12.64;54.28
78488;BME280;67885;49.758;9.582;2024-03-06T01:03:56;99309.06;;;12.60;54.65
78488;BME280;67885;49.758;9.582;2024-03-06T01:06:24;99310.63;;;12.62;54.39
78488;BME280;67885;49.758;9.582;2024-03-06T01:08:51;99306.84;;;12.65;54.11
78488;BME280;67885;49.758;9.582;2024-03-06T01:11:18;99286.22;;;12.47;54.31
78488;BME280;67885;49.758;9.582;2024-03-06T01:13:44;99312.44;;;12.62;54.50
78488;BME280;67885;49.758;9.582;2024-03-06T01:16:11;99311.72;;;12.60;54.53
78488;BME280;67885;49.758;9.582;2024-03-06T01:18:37;99278.91;;;12.40;54.47
78488;BME280;67885;49.758;9.582;2024-03-06T01:21:04;99317.31;;;12.57;54.56
78488;BME280;67885;49.758;9.582;2024-03-06T01:23:32;99317.44;;;12.55;55.18
78488;BME280;67885;49.758;9.582;2024-03-06T01:25:58;99311.31;;;12.55;54.78
78488;BME280;67885;49.758;9.582;2024-03-06T01:28:25;99317.44;;;12.55;54.55
78488;BME280;67885;49.758;9.582;2024-03-06T01:30:52;99320.25;;;12.54;54.43
78488;BME280;67885;49.758;9.582;2024-03-06T01:33:18;99317.81;;;12.51;55.05
78488;BME280;67885;49.758;9.582;2024-03-06T01:35:45;99320.06;;;12.45;54.86
78488;BME280;67885;49.758;9.582;2024-03-06T01:38:11;99323.69;;;12.44;55.01
78488;BME280;67885;49.758;9.582;2024-03-06T01:40:43;99273.53;;;11.99;55.66
78488;BME280;67885;49.758;9.582;2024-03-06T01:43:18;99327.03;;;12.46;54.81
78488;BME280;67885;49.758;9.582;2024-03-06T01:45:45;99321.72;;;12.46;54.93
78488;BME280;67885;49.758;9.582;2024-03-06T01:48:13;99325.94;;;12.49;55.28
78488;BME280;67885;49.758;9.582;2024-03-06T01:50:40;99322.03;;;12.53;54.52
78488;BME280;67885;49.758;9.582;2024-03-06T01:53:08;99324.44;;;12.56;55.00
78488;BME280;67885;49.758;9.582;2024-03-06T01:55:36;99317.44;;;12.55;54.76
78488;BME280;67885;49.758;9.582;2024-03-06T01:58:04;99321.34;;;12.51;54.54
78488;BME280;67885;49.758;9.582;2024-03-06T02:00:32;99314.44;;;12.39;55.17
78488;BME280;67885;49.758;9.582;2024-03-06T02:03:00;99324.28;;;12.48;54.47
78488;BME280;67885;49.758;9.582;2024-03-06T02:05:28;99326.66;;;12.51;54.51
78488;BME280;67885;49.758;9.582;2024-03-06T02:07:58;99324.81;;;12.52;55.05
78488;BME280;67885;49.758;9.582;2024-03-06T02:10:25;99325.78;;;12.51;54.70
78488;BME280;67885;49.758;9.582;2024-03-06T02:12:53;99320.38;;;12.52;54.14
78488;BME280;67885;49.758;9.582;2024-03-06T02:15:21;99313.38;;;12.51;54.91
78488;BME280;67885;49.758;9.582;2024-03-06T02:17:48;99313.50;;;12.50;54.86
78488;BME280;67885;49.758;9.582;2024-03-06T02:20:15;99312.66;;;12.49;54.46
78488;BME280;67885;49.758;9.582;2024-03-06T02:22:43;99281.47;;;12.20;54.98
78488;BME280;67885;49.758;9.582;2024-03-06T02:25:10;99326.34;;;12.44;54.39
78488;BME280;67885;49.758;9.582;2024-03-06T02:27:38;99305.78;;;12.16;54.44
78488;BME280;67885;49.758;9.582;2024-03-06T02:30:05;99302.53;;;12.12;54.96
78488;BME280;67885;49.758;9.582;2024-03-06T02:32:32;99310.69;;;12.20;54.74
78488;BME280;67885;49.758;9.582;2024-03-06T02:35:00;99325.84;;;12.29;55.48
78488;BME280;67885;49.758;9.582;2024-03-06T02:37:28;99323.78;;;12.33;54.49
78488;BME280;67885;49.758;9.582;2024-03-06T02:39:55;99329.09;;;12.33;54.39
78488;BME280;67885;49.758;9.582;2024-03-06T02:42:22;99330.88;;;12.32;55.38
78488;BME280;67885;49.758;9.582;2024-03-06T02:44:49;99314.75;;;12.24;55.00
78488;BME280;67885;49.758;9.582;2024-03-06T02:47:15;99333.06;;;12.27;54.84
78488;BME280;67885;49.758;9.582;2024-03-06T02:49:42;99337.09;;;12.22;54.91
78488;BME280;67885;49.758;9.582;2024-03-06T02:52:08;99337.50;;;12.17;55.57
78488;BME280;67885;49.758;9.582;2024-03-06T02:54:35;99330.03;;;12.11;55.05
78488;BME280;67885;49.758;9.582;2024-03-06T02:57:03;99342.69;;;12.19;54.54
78488;BME280;67885;49.758;9.582;2024-03-06T02:59:29;99323.78;;;12.12;54.18
78488;BME280;67885;49.758;9.582;2024-03-06T03:01:56;99345.19;;;12.20;54.16
78488;BME280;67885;49.758;9.582;2024-03-06T03:04:23;99338.34;;;12.18;54.62
78488;BME280;67885;49.758;9.582;2024-03-06T03:06:49;99336.09;;;12.13;54.82
78488;BME280;67885;49.758;9.582;2024-03-06T03:09:16;99335.50;;;12.09;55.34
78488;BME280;67885;49.758;9.582;2024-03-06T03:11:43;99333.56;;;12.11;54.77
78488;BME280;67885;49.758;9.582;2024-03-06T03:14:11;99330.19;;;12.09;54.94
78488;BME280;67885;49.758;9.582;2024-03-06T03:16:37;99331.88;;;12.10;55.23
78488;BME280;67885;49.758;9.582;2024-03-06T03:19:04;99328.25;;;12.11;55.25
78488;BME280;67885;49.758;9.582;2024-03-06T03:21:31;99334.25;;;12.13;55.11
78488;BME280;67885;49.758;9.582;2024-03-06T03:23:57;99328.81;;;12.15;55.30
78488;BME280;67885;49.758;9.582;2024-03-06T03:26:24;99329.53;;;12.17;54.52
78488;BME280;67885;49.758;9.582;2024-03-06T03:28:51;99327.56;;;12.19;55.25
78488;BME280;67885;49.758;9.582;2024-03-06T03:31:19;99330.00;;;12.22;54.27
78488;BME280;67885;49.758;9.582;2024-03-06T03:33:46;99292.09;;;11.99;54.42
78488;BME280;67885;49.758;9.582;2024-03-06T03:36:13;99328.16;;;12.23;54.88
78488;BME280;67885;49.758;9.582;2024-03-06T03:38:40;99320.72;;;12.17;54.46
78488;BME280;67885;49.758;9.582;2024-03-06T03:41:08;99320.03;;;12.14;55.21
78488;BME280;67885;49.758;9.582;2024-03-06T03:43:34;99318.31;;;12.13;55.54
78488;BME280;67885;49.758;9.582;2024-03-06T03:46:01;99316.63;;;12.12;54.78
78488;BME280;67885;49.758;9.582;2024-03-06T03:48:31;99309.06;;;12.08;55.02
78488;BME280;67885;49.758;9.582;2024-03-06T03:51:01;99321.53;;;12.07;55.32
78488;BME280;67885;49.758;9.582;2024-03-06T03:53:28;99321.75;;;12.04;54.93
78488;BME280;67885;49.758;9.582;2024-03-06T03:55:54;99330.38;;;11.96;54.83
78488;BME280;67885;49.758;9.582;2024-03-06T03:58:21;99344.06;;;11.80;55.66
78488;BME280;67885;49.758;9.582;2024-03-06T04:00:48;99345.69;;;11.60;55.72
78488;BME280;67885;49.758;9.582;2024-03-06T04:03:18;99359.84;;;11.50;56.33
78488;BME280;67885;49.758;9.582;2024-03-06T04:05:46;99361.44;;;11.41;55.75
78488;BME280;67885;49.758;9.582;2024-03-06T04:08:12;99362.53;;;11.38;56.38
78488;BME280;67885;49.758;9.582;2024-03-06T04:10:39;99362.66;;;11.37;56.83
78488;BME280;67885;49.758;9.582;2024-03-06T04:13:06;99363.00;;;11.32;57.57
78488;BME280;67885;49.758;9.582;2024-03-06T04:15:32;99364.44;;;11.36;57.60
78488;BME280;67885;49.758;9.582;2024-03-06T04:17:59;99372.88;;;11.41;56.64
78488;BME280;67885;49.758;9.582;2024-03-06T04:20:26;99372.25;;;11.49;56.26
78488;BME280;67885;49.758;9.582;2024-03-06T04:22:54;99373.44;;;11.56;56.70
78488;BME280;67885;49.758;9.582;2024-03-06T04:25:21;99364.53;;;11.57;56.43
78488;BME280;67885;49.758;9.582;2024-03-06T04:27:49;99376.31;;;11.64;56.47
78488;BME280;67885;49.758;9.582;2024-03-06T04:30:15;99374.25;;;11.68;55.90
78488;BME280;67885;49.758;9.582;2024-03-06T04:32:42;99370.50;;;11.71;55.85
78488;BME280;67885;49.758;9.582;2024-03-06T04:35:10;99373.72;;;11.74;55.92
78488;BME280;67885;49.758;9.582;2024-03-06T04:37:37;99375.28;;;11.77;56.09
78488;BME280;67885;49.758;9.582;2024-03-06T04:40:07;99371.81;;;11.76;56.05
78488;BME280;67885;49.758;9.582;2024-03-06T04:42:34;99384.44;;;11.84;55.88
78488;BME280;67885;49.758;9.582;2024-03-06T04:45:02;99382.50;;;11.86;55.29
78488;BME280;67885;49.758;9.582;2024-03-06T04:47:29;99376.03;;;11.79;55.79
78488;BME280;67885;49.758;9.582;2024-03-06T04:49:56;99362.91;;;11.66;55.15
78488;BME280;67885;49.758;9.582;2024-03-06T04:52:24;99374.94;;;11.81;55.96
78488;BME280;67885;49.758;9.582;2024-03-06T04:54:50;99377.44;;;11.83;56.18
78488;BME280;67885;49.758;9.582;2024-03-06T04:57:18;99386.13;;;11.85;55.40
78488;BME280;67885;49.758;9.582;2024-03-06T04:59:45;99380.94;;;11.84;55.00
78488;BME280;67885;49.758;9.582;2024-03-06T05:02:11;99389.72;;;11.84;55.53
78488;BME280;67885;49.758;9.582;2024-03-06T05:04:38;99390.84;;;11.81;55.69
78488;BME280;67885;49.758;9.582;2024-03-06T05:07:04;99399.78;;;11.80;55.78
78488;BME280;67885;49.758;9.582;2024-03-06T05:09:31;99400.59;;;11.81;55.25
78488;BME280;67885;49.758;9.582;2024-03-06T05:11:57;99400.94;;;11.88;56.44
78488;BME280;67885;49.758;9.582;2024-03-06T05:14:25;99396.84;;;11.95;54.68
78488;BME280;67885;49.758;9.582;2024-03-06T05:16:52;99357.25;;;11.71;55.25
78488;BME280;67885;49.758;9.582;2024-03-06T05:19:19;99402.75;;;11.98;55.41
78488;BME280;67885;49.758;9.582;2024-03-06T05:21:46;99412.66;;;11.96;55.07
78488;BME280;67885;49.758;9.582;2024-03-06T05:24:12;99415.78;;;11.90;55.41
78488;BME280;67885;49.758;9.582;2024-03-06T05:26:39;99378.25;;;11.62;55.62
78488;BME280;67885;49.758;9.582;2024-03-06T05:29:06;99425.91;;;11.85;54.86
78488;BME280;67885;49.758;9.582;2024-03-06T05:31:34;99428.22;;;11.78;55.62
78488;BME280;67885;49.758;9.582;2024-03-06T05:34:00;99410.66;;;11.66;55.34
78488;BME280;67885;49.758;9.582;2024-03-06T05:36:27;99419.34;;;11.68;55.51
78488;BME280;67885;49.758;9.582;2024-03-06T05:38:54;99417.66;;;11.67;55.82
78488;BME280;67885;49.758;9.582;2024-03-06T05:41:20;99429.78;;;11.81;54.79
78488;BME280;67885;49.758;9.582;2024-03-06T05:43:46;99431.34;;;11.84;55.14
78488;BME280;67885;49.758;9.582;2024-03-06T05:46:13;99435.84;;;11.83;55.33
78488;BME280;67885;49.758;9.582;2024-03-06T05:48:42;99446.44;;;11.83;55.38
78488;BME280;67885;49.758;9.582;2024-03-06T05:51:09;99443.53;;;11.86;55.35
78488;BME280;67885;49.758;9.582;2024-03-06T05:53:36;99444.13;;;11.90;54.79
78488;BME280;67885;49.758;9.582;2024-03-06T05:56:05;99448.44;;;11.91;54.57
78488;BME280;67885;49.758;9.582;2024-03-06T05:58:32;99442.69;;;11.86;54.30
78488;BME280;67885;49.758;9.582;2024-03-06T06:00:59;99450.19;;;11.80;55.50
78488;BME280;67885;49.758;9.582;2024-03-06T06:03:26;99451.88;;;11.81;54.92
78488;BME280;67885;49.758;9.582;2024-03-06T06:05:55;99457.91;;;11.84;55.23
78488;BME280;67885;49.758;9.582;2024-03-06T06:08:21;99458.72;;;11.84;54.62
78488;BME280;67885;49.758;9.582;2024-03-06T06:10:49;99448.66;;;11.67;55.01
78488;BME280;67885;49.758;9.582;2024-03-06T06:13:17;99462.25;;;11.73;55.51
78488;BME280;67885;49.758;9.582;2024-03-06T06:15:43;99478.44;;;11.70;55.97
78488;BME280;67885;49.758;9.582;2024-03-06T06:18:10;99475.06;;;11.68;56.08
78488;BME280;67885;49.758;9.582;2024-03-06T06:20:37;99463.16;;;11.62;55.56
78488;BME280;67885;49.758;9.582;2024-03-06T06:23:05;99447.09;;;11.53;55.89
78488;BME280;67885;49.758;9.582;2024-03-06T06:25:32;99478.41;;;11.81;55.92
78488;BME280;67885;49.758;9.582;2024-03-06T06:27:58;99480.69;;;11.86;55.24
78488;BME280;67885;49.758;9.582;2024-03-06T06:30:25;99479.59;;;11.89;55.03
78488;BME280;67885;49.758;9.582;2024-03-06T06:32:52;99485.88;;;11.88;55.45
78488;BME280;67885;49.758;9.582;2024-03-06T06:35:19;99486.59;;;11.90;55.80
78488;BME280;67885;49.758;9.582;2024-03-06T06:37:45;99484.91;;;11.89;56.41
78488;BME280;67885;49.758;9.582;2024-03-06T06:40:14;99497.09;;;11.91;55.36
78488;BME280;67885;49.758;9.582;2024-03-06T06:42:44;99515.66;;;11.91;54.94
78488;BME280;67885;49.758;9.582;2024-03-06T06:45:14;99498.31;;;11.87;56.16
78488;BME280;67885;49.758;9.582;2024-03-06T06:47:41;99508.53;;;11.92;56.26
78488;BME280;67885;49.758;9.582;2024-03-06T06:50:08;99499.25;;;11.97;55.94
78488;BME280;67885;49.758;9.582;2024-03-06T06:52:36;99502.53;;;12.01;55.70
78488;BME280;67885;49.758;9.582;2024-03-06T06:55:03;99510.22;;;12.04;55.32
78488;BME280;67885;49.758;9.582;2024-03-06T06:57:32;99505.66;;;12.06;55.67
78488;BME280;67885;49.758;9.582;2024-03-06T06:59:59;99509.13;;;12.07;55.48
78488;BME280;67885;49.758;9.582;2024-03-06T07:02:26;99469.03;;;11.77;54.75
78488;BME280;67885;49.758;9.582;2024-03-06T07:04:53;99514.84;;;12.02;54.85
78488;BME280;67885;49.758;9.582;2024-03-06T07:07:19;99516.06;;;11.98;55.42
78488;BME280;67885;49.758;9.582;2024-03-06T07:09:46;99518.09;;;11.94;55.54
78488;BME280;67885;49.758;9.582;2024-03-06T07:12:14;99526.16;;;11.93;54.56
78488;BME280;67885;49.758;9.582;2024-03-06T07:14:42;99523.50;;;11.93;55.79
78488;BME280;67885;49.758;9.582;2024-03-06T07:17:09;99509.50;;;11.91;55.57
78488;BME280;67885;49.758;9.582;2024-03-06T07:19:35;99522.19;;;11.98;54.74
78488;BME280;67885;49.758;9.582;2024-03-06T07:22:02;99518.56;;;12.00;54.95
78488;BME280;67885;49.758;9.582;2024-03-06T07:24:28;99514.09;;;12.00;55.07
78488;BME280;67885;49.758;9.582;2024-03-06T07:26:55;99527.38;;;12.00;55.66
78488;BME280;67885;49.758;9.582;2024-03-06T07:29:22;99527.25;;;12.02;55.08
78488;BME280;67885;49.758;9.582;2024-03-06T07:31:50;99528.09;;;12.02;55.09
78488;BME280;67885;49.758;9.582;2024-03-06T07:34:16;99520.97;;;12.03;55.40
78488;BME280;67885;49.758;9.582;2024-03-06T07:36:43;99531.34;;;12.06;55.02
78488;BME280;67885;49.758;9.582;2024-03-06T07:39:11;99526.75;;;12.08;55.29
78488;BME280;67885;49.758;9.582;2024-03-06T07:41:39;99529.28;;;12.09;55.66
78488;BME280;67885;49.758;9.582;2024-03-06T07:44:06;99529.28;;;12.09;56.23
78488;BME280;67885;49.758;9.582;2024-03-06T07:46:34;99525.06;;;12.07;55.56
78488;BME280;67885;49.758;9.582;2024-03-06T07:49:02;99544.72;;;12.16;55.64
78488;BME280;67885;49.758;9.582;2024-03-06T07:51:30;99538.56;;;12.15;55.18
78488;BME280;67885;49.758;9.582;2024-03-06T07:53:57;99548.31;;;12.26;55.16
78488;BME280;67885;49.758;9.582;2024-03-06T07:56:23;99547.94;;;12.30;55.32
78488;BME280;67885;49.758;9.582;2024-03-06T07:58:50;99551.19;;;12.34;55.17
78488;BME280;67885;49.758;9.582;2024-03-06T08:01:17;99554.44;;;12.38;55.52
78488;BME280;67885;49.758;9.582;2024-03-06T08:03:44;99525.25;;;12.26;55.43
78488;BME280;67885;49.758;9.582;2024-03-06T08:06:12;99557.78;;;12.51;54.82
78488;BME280;67885;49.758;9.582;2024-03-06T08:08:41;99555.59;;;12.56;54.29
78488;BME280;67885;49.758;9.582;2024-03-06T08:11:09;99558.69;;;12.61;54.60
78488;BME280;67885;49.758;9.582;2024-03-06T08:13:37;99558.31;;;12.66;54.15
78488;BME280;67885;49.758;9.582;2024-03-06T08:16:04;99554.09;;;12.63;54.56
78488;BME280;67885;49.758;9.582;2024-03-06T08:18:34;99581.97;;;12.69;53.71
78488;BME280;67885;49.758;9.582;2024-03-06T08:21:02;99544.69;;;12.59;54.86
78488;BME280;67885;49.758;9.582;2024-03-06T08:23:30;99564.22;;;12.70;54.99
78488;BME280;67885;49.758;9.582;2024-03-06T08:25:57;99568.53;;;12.71;55.19
78488;BME280;67885;49.758;9.582;2024-03-06T08:28:24;99569.97;;;12.75;54.98
78488;BME280;67885;49.758;9.582;2024-03-06T08:30:52;99575.16;;;12.76;55.28
78488;BME280;67885;49.758;9.582;2024-03-06T08:33:18;99577.72;;;12.78;54.70
78488;BME280;67885;49.758;9.582;2024-03-06T08:35:46;99576.63;;;12.80;54.96
78488;BME280;67885;49.758;9.582;2024-03-06T08:38:13;99563.75;;;12.86;54.22
78488;BME280;67885;49.758;9.582;2024-03-06T08:40:41;99568.72;;;12.90;53.92
78488;BME280;67885;49.758;9.582;2024-03-06T08:43:10;99578.81;;;12.96;54.66
78488;BME280;67885;49.758;9.582;2024-03-06T08:45:38;99576.88;;;12.98;54.27
78488;BME280;67885;49.758;9.582;2024-03-06T08:48:05;99535.19;;;12.78;54.51
78488;BME280;67885;49.758;9.582;2024-03-06T08:50:32;99580.72;;;13.06;54.91
78488;BME280;67885;49.758;9.582;2024-03-06T08:52:58;99582.00;;;13.11;54.00
78488;BME280;67885;49.758;9.582;2024-03-06T08:55:25;99579.19;;;13.13;54.11
78488;BME280;67885;49.758;9.582;2024-03-06T08:57:54;99582.84;;;13.12;54.72
78488;BME280;67885;49.758;9.582;2024-03-06T09:00:22;99542.69;;;12.73;53.78
78488;BME280;67885;49.758;9.582;2024-03-06T09:02:51;99590.09;;;13.10;54.21
78488;BME280;67885;49.758;9.582;2024-03-06T09:05:18;99588.59;;;13.17;53.14
78488;BME280;67885;49.758;9.582;2024-03-06T09:07:47;99593.69;;;13.20;53.35
78488;BME280;67885;49.758;9.582;2024-03-06T09:10:14;99590.16;;;13.20;53.24
78488;BME280;67885;49.758;9.582;2024-03-06T09:12:40;99594.38;;;13.22;53.75
78488;BME280;67885;49.758;9.582;2024-03-06T09:15:09;99585.16;;;13.26;54.88
78488;BME280;67885;49.758;9.582;2024-03-06T09:17:36;99582.97;;;13.31;54.86
78488;BME280;67885;49.758;9.582;2024-03-06T09:20:04;99585.34;;;13.35;53.69
78488;BME280;67885;49.758;9.582;2024-03-06T09:22:36;99589.47;;;13.39;53.12
78488;BME280;67885;49.758;9.582;2024-03-06T09:25:03;99599.00;;;13.41;53.35
78488;BME280;67885;49.758;9.582;2024-03-06T09:27:30;99593.97;;;13.38;53.96
78488;BME280;67885;49.758;9.582;2024-03-06T09:29:56;99605.50;;;13.48;54.19
78488;BME280;67885;49.758;9.582;2024-03-06T09:32:24;99606.06;;;13.52;54.07
78488;BME280;67885;49.758;9.582;2024-03-06T09:34:52;99595.69;;;13.49;53.42
78488;BME280;67885;49.758;9.582;2024-03-06T09:37:18;99604.81;;;13.56;53.29
78488;BME280;67885;49.758;9.582;2024-03-06T09:39:45;99607.25;;;13.59;51.96
78488;BME280;67885;49.758;9.582;2024-03-06T09:42:13;99611.84;;;13.57;52.17
78488;BME280;67885;49.758;9.582;2024-03-06T09:44:40;99593.00;;;13.39;53.12
78488;BME280;67885;49.758;9.582;2024-03-06T09:47:07;99619.25;;;13.54;52.48
78488;BME280;67885;49.758;9.582;2024-03-06T09:49:35;99605.44;;;13.39;52.87
78488;BME280;67885;49.758;9.582;2024-03-06T09:52:02;99607.13;;;13.40;53.04
78488;BME280;67885;49.758;9.582;2024-03-06T09:54:30;99619.00;;;13.36;53.24
78488;BME280;67885;49.758;9.582;2024-03-06T09:56:56;99619.88;;;13.36;52.84
78488;BME280;67885;49.758;9.582;2024-03-06T09:59:24;99608.00;;;13.40;52.80
78488;BME280;67885;49.758;9.582;2024-03-06T10:01:54;99618.63;;;13.40;53.41
78488;BME280;67885;49.758;9.582;2024-03-06T10:04:22;99601.97;;;13.06;53.76
78488;BME280;67885;49.758;9.582;2024-03-06T10:06:53;99635.16;;;13.44;53.21
78488;BME280;67885;49.758;9.582;2024-03-06T10:09:21;99623.72;;;13.53;53.36
78488;BME280;67885;49.758;9.582;2024-03-06T10:11:48;99623.47;;;13.56;52.63
78488;BME280;67885;49.758;9.582;2024-03-06T10:14:15;99623.47;;;13.56;52.96
78488;BME280;67885;49.758;9.582;2024-03-06T10:16:52;99544.22;;;13.08;53.05
78488;BME280;67885;49.758;9.582;2024-03-06T10:19:19;99601.28;;;13.46;52.71
78488;BME280;67885;49.758;9.582;2024-03-06T10:21:47;99630.78;;;13.64;52.85
78488;BME280;67885;49.758;9.582;2024-03-06T10:24:18;99634.72;;;13.70;52.39
78488;BME280;67885;49.758;9.582;2024-03-06T10:26:45;99634.59;;;13.71;52.95
78488;BME280;67885;49.758;9.582;2024-03-06T10:29:15;99630.38;;;13.69;53.06
78488;BME280;67885;49.758;9.582;2024-03-06T10:31:47;99633.31;;;13.65;52.97
78488;BME280;67885;49.758;9.582;2024-03-06T10:34:13;99626.84;;;13.58;53.20
78488;BME280;67885;49.758;9.582;2024-03-06T10:36:42;99634.25;;;13.55;53.77
78488;BME280;67885;49.758;9.582;2024-03-06T10:39:11;99638.00;;;13.52;54.42
78488;BME280;67885;49.758;9.582;2024-03-06T10:41:40;99637.03;;;13.53;54.11
78488;BME280;67885;49.758;9.582;2024-03-06T10:44:11;99635.34;;;13.52;53.62
78488;BME280;67885;49.758;9.582;2024-03-06T10:46:43;99617.94;;;13.27;54.00
78488;BME280;67885;49.758;9.582;2024-03-06T10:49:12;99637.34;;;13.39;54.41
78488;BME280;67885;49.758;9.582;2024-03-06T10:51:40;99630.72;;;13.33;54.13
78488;BME280;67885;49.758;9.582;2024-03-06T10:54:09;99644.75;;;13.35;54.83
78488;BME280;67885;49.758;9.582;2024-03-06T10:56:40;99654.31;;;13.38;55.00
78488;BME280;67885;49.758;9.582;2024-03-06T10:59:11;99628.91;;;13.33;54.47
78488;BME280;67885;49.758;9.582;2024-03-06T11:01:39;99602.44;;;13.11;54.01
78488;BME280;67885;49.758;9.582;2024-03-06T11:04:09;99653.47;;;13.58;54.64
78488;BME280;67885;49.758;9.582;2024-03-06T11:06:37;99650.66;;;13.60;53.49
78488;BME280;67885;49.758;9.582;2024-03-06T11:09:05;99654.28;;;13.59;53.93
78488;BME280;67885;49.758;9.582;2024-03-06T11:11:48;99655.16;;;13.59;53.21
78488;BME280;67885;49.758;9.582;2024-03-06T11:14:17;99660.19;;;13.62;53.81
78488;BME280;67885;49.758;9.582;2024-03-06T11:16:58;99657.53;;;13.62;54.45
78488;BME280;67885;49.758;9.582;2024-03-06T11:19:25;99656.56;;;13.63;53.32
78488;BME280;67885;49.758;9.582;2024-03-06T11:21:52;99638.41;;;13.47;53.29
78488;BME280;67885;49.758;9.582;2024-03-06T11:24:20;99661.16;;;13.61;52.85
78488;BME280;67885;49.758;9.582;2024-03-06T11:26:50;99663.00;;;13.61;53.68
78488;BME280;67885;49.758;9.582;2024-03-06T11:29:18;99628.31;;;13.30;53.61
78488;BME280;67885;49.758;9.582;2024-03-06T11:32:06;99609.00;;;13.49;54.07
78488;BME280;67885;49.758;9.582;2024-03-06T11:34:34;99635.66;;;13.59;53.65
78488;BME280;67885;49.758;9.582;2024-03-06T11:37:04;99653.03;;;13.84;52.97
78488;BME280;67885;49.758;9.582;2024-03-06T11:39:37;99657.38;;;13.85;54.65
78488;BME280;67885;49.758;9.582;2024-03-06T11:42:05;99657.25;;;13.87;54.22
78488;BME280;67885;49.758;9.582;2024-03-06T11:44:34;99654.44;;;13.88;53.58
78488;BME280;67885;49.758;9.582;2024-03-06T11:47:03;99652.38;;;13.92;52.99
78488;BME280;67885;49.758;9.582;2024-03-06T11:49:31;99649.00;;;13.90;52.46
78488;BME280;67885;49.758;9.582;2024-03-06T11:52:01;99658.25;;;13.95;52.87
78488;BME280;67885;49.758;9.582;2024-03-06T11:54:30;99654.75;;;13.95;53.36
78488;BME280;67885;49.758;9.582;2024-03-06T11:56:57;99655.22;;;14.00;52.32
78488;BME280;67885;49.758;9.582;2024-03-06T11:59:27;99657.59;;;14.03;52.86
78488;BME280;67885;49.758;9.582;2024-03-06T12:01:55;99647.63;;;14.05;53.37
78488;BME280;67885;49.758;9.582;2024-03-06T12:04:24;99659.59;;;14.11;51.73
78488;BME280;67885;49.758;9.582;2024-03-06T12:06:51;99654.13;;;14.12;52.54
78488;BME280;67885;49.758;9.582;2024-03-06T12:09:17;99654.81;;;14.14;53.06
78488;BME280;67885;49.758;9.582;2024-03-06T12:11:44;99648.66;;;14.14;52.19
78488;BME280;67885;49.758;9.582;2024-03-06T12:14:14;99651.78;;;14.19;51.84
78488;BME280;67885;49.758;9.582;2024-03-06T12:16:54;99641.66;;;14.13;53.19
78488;BME280;67885;49.758;9.582;2024-03-06T12:19:21;99644.47;;;14.21;51.29
78488;BME280;67885;49.758;9.582;2024-03-06T12:21:48;99654.16;;;14.22;51.23
78488;BME280;67885;49.758;9.582;2024-03-06T12:24:16;99653.19;;;14.23;51.78
78488;BME280;67885;49.758;9.582;2024-03-06T12:26:44;99655.84;;;14.23;52.55
78488;BME280;67885;49.758;9.582;2024-03-06T12:29:17;99649.41;;;14.26;52.19
78488;BME280;67885;49.758;9.582;2024-03-06T12:31:46;99651.81;;;14.29;51.55
78488;BME280;67885;49.758;9.582;2024-03-06T12:34:14;99650.97;;;14.28;51.32
78488;BME280;67885;49.758;9.582;2024-03-06T12:36:42;99650.09;;;14.28;52.49
78488;BME280;67885;49.758;9.582;2024-03-06T12:39:09;99644.94;;;14.36;51.88
78488;BME280;67885;49.758;9.582;2024-03-06T12:41:38;99655.22;;;14.41;51.08
78488;BME280;67885;49.758;9.582;2024-03-06T12:44:05;99650.72;;;14.41;51.14
78488;BME280;67885;49.758;9.582;2024-03-06T12:46:33;99664.47;;;14.46;52.20
78488;BME280;67885;49.758;9.582;2024-03-06T12:49:02;99650.47;;;14.54;50.87
78488;BME280;67885;49.758;9.582;2024-03-06T12:51:28;99645.53;;;14.59;50.55
78488;BME280;67885;49.758;9.582;2024-03-06T12:53:55;99654.16;;;14.63;50.58
78488;BME280;67885;49.758;9.582;2024-03-06T12:56:22;99645.28;;;14.62;50.60
78488;BME280;67885;49.758;9.582;2024-03-06T12:58:50;99641.06;;;14.60;50.06
78488;BME280;67885;49.758;9.582;2024-03-06T13:01:17;99679.78;;;14.54;50.31